Terminal Aerodrome Forecast
Issued by NWS Wichita, KS

Home | Current Version | Previous Version | Graphics & Text | Print | Product List | Glossary On
Versions: 1 2 3 4 5 6 7 8 9 10 11 12 13 14 15 16 17 18 19 20
000
FTUS43 KICT 151722
TAFICT
TAF
KICT 151722Z 1518/1618 36015G22KT P6SM SKC
     FM152300 01006KT P6SM SCT250
     FM160500 VRB03KT P6SM SCT250
     FM161400 15009KT P6SM SCT250=

USA.gov is the U.S. government's official web portal to all federal, state and local government web resources and services.